sensor_id;sensor_type;location;lat;lon;timestamp;pressure;altitude;pressure_sealevel;temperature;humidity
50394;BME280;36308;46.312;25.288;2023-04-27T00:00:23;95762.88;;;6.40;62.73
50394;BME280;36308;46.312;25.288;2023-04-27T00:02:48;95769.28;;;6.39;62.51
50394;BME280;36308;46.312;25.288;2023-04-27T00:05:14;95770.53;;;6.37;62.62
50394;BME280;36308;46.312;25.288;2023-04-27T00:07:40;95764.88;;;6.33;62.66
50394;BME280;36308;46.312;25.288;2023-04-27T00:10:06;95763.59;;;6.36;62.65
50394;BME280;36308;46.312;25.288;2023-04-27T00:12:32;95764.88;;;6.33;62.93
50394;BME280;36308;46.312;25.288;2023-04-27T00:14:58;95757.69;;;6.34;62.93
50394;BME280;36308;46.312;25.288;2023-04-27T00:17:23;95765.47;;;6.35;62.70
50394;BME280;36308;46.312;25.288;2023-04-27T00:19:49;95756.63;;;6.35;62.49
50394;BME280;36308;46.312;25.288;2023-04-27T00:22:14;95761.72;;;6.36;62.78
50394;BME280;36308;46.312;25.288;2023-04-27T00:24:40;95765.19;;;6.37;63.14
50394;BME280;36308;46.312;25.288;2023-04-27T00:27:06;95768.69;;;6.37;62.75
50394;BME280;36308;46.312;25.288;2023-04-27T00:29:31;95768.94;;;6.36;62.99
50394;BME280;36308;46.312;25.288;2023-04-27T00:31:57;95774.72;;;6.33;62.57
50394;BME280;36308;46.312;25.288;2023-04-27T00:34:23;95776.03;;;6.30;62.48
50394;BME280;36308;46.312;25.288;2023-04-27T00:36:48;95781.38;;;6.30;62.77
50394;BME280;36308;46.312;25.288;2023-04-27T00:39:14;95780.22;;;6.26;62.68
50394;BME280;36308;46.312;25.288;2023-04-27T00:41:40;95769.44;;;6.21;62.64
50394;BME280;36308;46.312;25.288;2023-04-27T00:44:06;95777.44;;;6.21;63.00
50394;BME280;36308;46.312;25.288;2023-04-27T00:46:32;95772.00;;;6.16;62.94
50394;BME280;36308;46.312;25.288;2023-04-27T00:48:59;95764.47;;;6.13;63.04
50394;BME280;36308;46.312;25.288;2023-04-27T00:51:25;95758.44;;;6.05;63.34
50394;BME280;36308;46.312;25.288;2023-04-27T00:53:52;95764.03;;;6.04;63.45
50394;BME280;36308;46.312;25.288;2023-04-27T00:56:18;95762.63;;;6.01;63.36
50394;BME280;36308;46.312;25.288;2023-04-27T00:58:44;95755.91;;;5.99;63.38
50394;BME280;36308;46.312;25.288;2023-04-27T01:01:09;95763.09;;;5.98;63.55
50394;BME280;36308;46.312;25.288;2023-04-27T01:03:35;95760.91;;;5.95;63.79
50394;BME280;36308;46.312;25.288;2023-04-27T01:06:00;95772.16;;;5.97;64.15
50394;BME280;36308;46.312;25.288;2023-04-27T01:08:27;95769.47;;;5.97;64.07
50394;BME280;36308;46.312;25.288;2023-04-27T01:10:53;95771.34;;;5.97;64.22
50394;BME280;36308;46.312;25.288;2023-04-27T01:13:18;95770.53;;;5.96;64.02
50394;BME280;36308;46.312;25.288;2023-04-27T01:15:44;95772.41;;;5.96;63.86
50394;BME280;36308;46.312;25.288;2023-04-27T01:18:10;95768.91;;;5.95;64.17
50394;BME280;36308;46.312;25.288;2023-04-27T01:20:35;95783.88;;;5.96;64.12
50394;BME280;36308;46.312;25.288;2023-04-27T01:23:02;95786.56;;;5.96;64.60
50394;BME280;36308;46.312;25.288;2023-04-27T01:25:28;95785.50;;;5.97;64.56
50394;BME280;36308;46.312;25.288;2023-04-27T01:27:54;95784.47;;;5.98;63.83
50394;BME280;36308;46.312;25.288;2023-04-27T01:30:19;95790.25;;;5.95;64.27
50394;BME280;36308;46.312;25.288;2023-04-27T01:32:47;95789.78;;;5.98;64.50
50394;BME280;36308;46.312;25.288;2023-04-27T01:35:13;95794.91;;;6.00;64.62
50394;BME280;36308;46.312;25.288;2023-04-27T01:37:38;95784.69;;;5.97;64.81
50394;BME280;36308;46.312;25.288;2023-04-27T01:40:04;95789.78;;;5.98;64.74
50394;BME280;36308;46.312;25.288;2023-04-27T01:42:31;95793.03;;;6.00;64.45
50394;BME280;36308;46.312;25.288;2023-04-27T01:44:56;95786.06;;;5.99;64.54
50394;BME280;36308;46.312;25.288;2023-04-27T01:47:22;95787.69;;;6.00;64.95
50394;BME280;36308;46.312;25.288;2023-04-27T01:49:47;95794.66;;;6.01;64.61
50394;BME280;36308;46.312;25.288;2023-04-27T01:52:13;95801.41;;;6.04;64.86
50394;BME280;36308;46.312;25.288;2023-04-27T01:54:38;95790.47;;;6.05;64.53
50394;BME280;36308;46.312;25.288;2023-04-27T01:57:03;95801.97;;;6.06;64.62
50394;BME280;36308;46.312;25.288;2023-04-27T01:59:29;95786.91;;;6.00;64.30
50394;BME280;36308;46.312;25.288;2023-04-27T02:01:55;95801.13;;;6.05;64.53
50394;BME280;36308;46.312;25.288;2023-04-27T02:04:20;95803.81;;;6.05;64.53
50394;BME280;36308;46.312;25.288;2023-04-27T02:06:46;95809.97;;;6.06;64.07
50394;BME280;36308;46.312;25.288;2023-04-27T02:09:12;95810.78;;;6.06;64.13
50394;BME280;36308;46.312;25.288;2023-04-27T02:11:37;95810.22;;;6.04;64.18
50394;BME280;36308;46.312;25.288;2023-04-27T02:14:03;95806.47;;;6.05;64.14
50394;BME280;36308;46.312;25.288;2023-04-27T02:16:28;95805.91;;;6.03;64.20
50394;BME280;36308;46.312;25.288;2023-04-27T02:18:54;95813.91;;;6.03;64.16
50394;BME280;36308;46.312;25.288;2023-04-27T02:21:19;95815.53;;;6.04;64.53
50394;BME280;36308;46.312;25.288;2023-04-27T02:23:46;95813.47;;;6.06;64.09
50394;BME280;36308;46.312;25.288;2023-04-27T02:26:15;95812.16;;;6.09;63.86
50394;BME280;36308;46.312;25.288;2023-04-27T02:28:41;95820.41;;;6.07;63.76
50394;BME280;36308;46.312;25.288;2023-04-27T02:31:07;95815.06;;;6.07;64.13
50394;BME280;36308;46.312;25.288;2023-04-27T02:33:32;95822.97;;;6.02;64.21
50394;BME280;36308;46.312;25.288;2023-04-27T02:35:58;95825.41;;;6.04;64.05
50394;BME280;36308;46.312;25.288;2023-04-27T02:38:23;95816.00;;;6.01;64.10
50394;BME280;36308;46.312;25.288;2023-04-27T02:40:53;95830.41;;;6.00;63.89
50394;BME280;36308;46.312;25.288;2023-04-27T02:43:19;95825.06;;;6.00;64.50
50394;BME280;36308;46.312;25.288;2023-04-27T02:45:45;95826.34;;;5.98;64.12
50394;BME280;36308;46.312;25.288;2023-04-27T02:48:10;95825.97;;;5.94;63.82
50394;BME280;36308;46.312;25.288;2023-04-27T02:50:40;95830.16;;;5.90;64.42
50394;BME280;36308;46.312;25.288;2023-04-27T02:53:06;95830.16;;;5.90;64.07
50394;BME280;36308;46.312;25.288;2023-04-27T02:55:32;95833.84;;;5.89;64.06
50394;BME280;36308;46.312;25.288;2023-04-27T02:57:58;95831.66;;;5.86;64.70
50394;BME280;36308;46.312;25.288;2023-04-27T03:00:23;95843.72;;;5.88;64.73
50394;BME280;36308;46.312;25.288;2023-04-27T03:02:49;95846.38;;;5.88;64.44
50394;BME280;36308;46.312;25.288;2023-04-27T03:05:15;95843.47;;;5.90;64.40
50394;BME280;36308;46.312;25.288;2023-04-27T03:07:41;95847.75;;;5.91;64.54
50394;BME280;36308;46.312;25.288;2023-04-27T03:10:06;95843.25;;;5.92;64.51
50394;BME280;36308;46.312;25.288;2023-04-27T03:12:32;95839.75;;;5.91;64.52
50394;BME280;36308;46.312;25.288;2023-04-27T03:14:58;95851.00;;;5.93;64.23
50394;BME280;36308;46.312;25.288;2023-04-27T03:17:24;95858.44;;;5.91;63.72
50394;BME280;36308;46.312;25.288;2023-04-27T03:19:49;95862.16;;;5.90;64.10
50394;BME280;36308;46.312;25.288;2023-04-27T03:22:15;95856.69;;;5.85;63.67
50394;BME280;36308;46.312;25.288;2023-04-27T03:24:40;95867.38;;;5.85;63.95
50394;BME280;36308;46.312;25.288;2023-04-27T03:27:07;95866.78;;;5.83;63.63
50394;BME280;36308;46.312;25.288;2023-04-27T03:29:32;95870.50;;;5.82;63.68
50394;BME280;36308;46.312;25.288;2023-04-27T03:31:58;95868.06;;;5.80;63.45
50394;BME280;36308;46.312;25.288;2023-04-27T03:34:23;95869.34;;;5.78;63.72
50394;BME280;36308;46.312;25.288;2023-04-27T03:36:49;95870.16;;;5.78;63.52
50394;BME280;36308;46.312;25.288;2023-04-27T03:39:15;95880.81;;;5.78;63.47
50394;BME280;36308;46.312;25.288;2023-04-27T03:41:41;95871.22;;;5.77;63.42
50394;BME280;36308;46.312;25.288;2023-04-27T03:44:06;95873.03;;;5.77;63.45
50394;BME280;36308;46.312;25.288;2023-04-27T03:46:32;95877.00;;;5.74;63.50
50394;BME280;36308;46.312;25.288;2023-04-27T03:49:00;95876.78;;;5.76;63.90
50394;BME280;36308;46.312;25.288;2023-04-27T03:51:25;95882.69;;;5.78;63.48
50394;BME280;36308;46.312;25.288;2023-04-27T03:53:51;95884.28;;;5.79;63.92
50394;BME280;36308;46.312;25.288;2023-04-27T03:56:16;95899.28;;;5.80;63.96
50394;BME280;36308;46.312;25.288;2023-04-27T03:58:42;95905.63;;;5.79;63.70
50394;BME280;36308;46.312;25.288;2023-04-27T04:01:07;95905.06;;;5.77;63.41
50394;BME280;36308;46.312;25.288;2023-04-27T04:03:35;95892.31;;;5.79;63.92
50394;BME280;36308;46.312;25.288;2023-04-27T04:06:00;95905.88;;;5.77;63.47
50394;BME280;36308;46.312;25.288;2023-04-27T04:08:28;95899.13;;;5.75;63.34
50394;BME280;36308;46.312;25.288;2023-04-27T04:10:55;95910.28;;;5.72;63.13
50394;BME280;36308;46.312;25.288;2023-04-27T04:13:21;95906.44;;;5.67;63.53
50394;BME280;36308;46.312;25.288;2023-04-27T04:15:46;95909.47;;;5.71;63.62
50394;BME280;36308;46.312;25.288;2023-04-27T04:18:12;95919.31;;;5.71;63.34
50394;BME280;36308;46.312;25.288;2023-04-27T04:20:37;95923.63;;;5.72;63.51
50394;BME280;36308;46.312;25.288;2023-04-27T04:23:03;95919.09;;;5.72;63.98
50394;BME280;36308;46.312;25.288;2023-04-27T04:25:28;95917.00;;;5.74;64.11
50394;BME280;36308;46.312;25.288;2023-04-27T04:27:54;95915.72;;;5.77;63.69
50394;BME280;36308;46.312;25.288;2023-04-27T04:30:19;95924.31;;;5.79;63.83
50394;BME280;36308;46.312;25.288;2023-04-27T04:32:45;95919.81;;;5.79;63.78
50394;BME280;36308;46.312;25.288;2023-04-27T04:35:10;95926.53;;;5.82;63.51
50394;BME280;36308;46.312;25.288;2023-04-27T04:37:36;95926.31;;;5.83;64.14
50394;BME280;36308;46.312;25.288;2023-04-27T04:40:06;95922.16;;;5.87;63.80
50394;BME280;36308;46.312;25.288;2023-04-27T04:42:37;95927.81;;;5.91;63.93
50394;BME280;36308;46.312;25.288;2023-04-27T04:45:03;95935.38;;;5.94;63.93
50394;BME280;36308;46.312;25.288;2023-04-27T04:47:29;95941.91;;;5.98;64.32
50394;BME280;36308;46.312;25.288;2023-04-27T04:49:58;95938.75;;;6.01;63.62
50394;BME280;36308;46.312;25.288;2023-04-27T04:52:24;95942.00;;;6.03;63.40
50394;BME280;36308;46.312;25.288;2023-04-27T04:54:52;95936.66;;;6.03;63.21
50394;BME280;36308;46.312;25.288;2023-04-27T04:57:18;95940.75;;;6.06;63.23
50394;BME280;36308;46.312;25.288;2023-04-27T04:59:44;95942.16;;;6.09;63.29
50394;BME280;36308;46.312;25.288;2023-04-27T05:02:09;95938.19;;;6.11;63.61
50394;BME280;36308;46.312;25.288;2023-04-27T05:04:35;95949.22;;;6.15;63.19
50394;BME280;36308;46.312;25.288;2023-04-27T05:07:00;95939.72;;;6.19;63.25
50394;BME280;36308;46.312;25.288;2023-04-27T05:09:26;95950.97;;;6.21;63.21
50394;BME280;36308;46.312;25.288;2023-04-27T05:11:51;95954.22;;;6.23;62.92
50394;BME280;36308;46.312;25.288;2023-04-27T05:14:17;95956.41;;;6.26;63.16
50394;BME280;36308;46.312;25.288;2023-04-27T05:16:42;95959.66;;;6.28;62.53
50394;BME280;36308;46.312;25.288;2023-04-27T05:19:08;95960.25;;;6.30;62.60
50394;BME280;36308;46.312;25.288;2023-04-27T05:21:33;95964.09;;;6.34;62.99
50394;BME280;36308;46.312;25.288;2023-04-27T05:23:59;95956.19;;;6.39;62.93
50394;BME280;36308;46.312;25.288;2023-04-27T05:26:25;95955.50;;;6.44;62.54
50394;BME280;36308;46.312;25.288;2023-04-27T05:28:50;95953.19;;;6.47;62.63
50394;BME280;36308;46.312;25.288;2023-04-27T05:31:16;95958.63;;;6.53;62.54
50394;BME280;36308;46.312;25.288;2023-04-27T05:33:41;95952.56;;;6.57;62.39
50394;BME280;36308;46.312;25.288;2023-04-27T05:36:07;95948.03;;;6.58;62.23
50394;BME280;36308;46.312;25.288;2023-04-27T05:38:33;95953.72;;;6.61;61.90
50394;BME280;36308;46.312;25.288;2023-04-27T05:41:00;95949.53;;;6.65;62.16
50394;BME280;36308;46.312;25.288;2023-04-27T05:43:25;95952.91;;;6.73;62.23
50394;BME280;36308;46.312;25.288;2023-04-27T05:45:52;95960.78;;;6.79;62.35
50394;BME280;36308;46.312;25.288;2023-04-27T05:48:18;95971.34;;;6.86;62.05
50394;BME280;36308;46.312;25.288;2023-04-27T05:50:44;95974.59;;;6.88;62.09
50394;BME280;36308;46.312;25.288;2023-04-27T05:53:10;95977.13;;;6.95;62.01
50394;BME280;36308;46.312;25.288;2023-04-27T05:55:35;95975.63;;;6.99;62.06
50394;BME280;36308;46.312;25.288;2023-04-27T05:58:02;95974.09;;;7.03;61.81
50394;BME280;36308;46.312;25.288;2023-04-27T06:00:28;95980.13;;;7.10;61.72
50394;BME280;36308;46.312;25.288;2023-04-27T06:02:53;95982.69;;;7.17;62.25
50394;BME280;36308;46.312;25.288;2023-04-27T06:05:19;95978.81;;;7.24;62.16
50394;BME280;36308;46.312;25.288;2023-04-27T06:07:45;95981.13;;;7.33;62.21
50394;BME280;36308;46.312;25.288;2023-04-27T06:10:11;95983.41;;;7.41;61.94
50394;BME280;36308;46.312;25.288;2023-04-27T06:12:55;95978.72;;;7.48;61.64
50394;BME280;36308;46.312;25.288;2023-04-27T06:15:21;95974.53;;;7.52;61.53
50394;BME280;36308;46.312;25.288;2023-04-27T06:17:46;95975.09;;;7.54;61.29
50394;BME280;36308;46.312;25.288;2023-04-27T06:20:12;95987.97;;;7.57;61.19
50394;BME280;36308;46.312;25.288;2023-04-27T06:22:38;95977.28;;;7.57;61.15
50394;BME280;36308;46.312;25.288;2023-04-27T06:25:04;95983.69;;;7.56;60.79
50394;BME280;36308;46.312;25.288;2023-04-27T06:27:31;95990.91;;;7.56;60.85
50394;BME280;36308;46.312;25.288;2023-04-27T06:29:57;95987.97;;;7.57;60.99
50394;BME280;36308;46.312;25.288;2023-04-27T06:32:22;95988.66;;;7.64;61.09
50394;BME280;36308;46.312;25.288;2023-04-27T06:34:48;95990.84;;;7.67;61.26
50394;BME280;36308;46.312;25.288;2023-04-27T06:37:14;95988.84;;;7.75;61.31
50394;BME280;36308;46.312;25.288;2023-04-27T06:39:42;95990.06;;;7.84;61.74
50394;BME280;36308;46.312;25.288;2023-04-27T06:42:08;95992.91;;;7.94;61.39
50394;BME280;36308;46.312;25.288;2023-04-27T06:44:34;95986.38;;;8.02;61.28
50394;BME280;36308;46.312;25.288;2023-04-27T06:46:59;95985.97;;;8.10;61.25
50394;BME280;36308;46.312;25.288;2023-04-27T06:49:24;95991.50;;;8.20;60.80
50394;BME280;36308;46.312;25.288;2023-04-27T06:51:50;95988.16;;;8.30;61.02
50394;BME280;36308;46.312;25.288;2023-04-27T06:54:16;95978.66;;;8.39;60.86
50394;BME280;36308;46.312;25.288;2023-04-27T06:56:42;95985.31;;;8.54;60.45
50394;BME280;36308;46.312;25.288;2023-04-27T06:59:08;95980.13;;;8.64;60.38
50394;BME280;36308;46.312;25.288;2023-04-27T07:01:35;95982.38;;;8.72;60.22
50394;BME280;36308;46.312;25.288;2023-04-27T07:04:04;95983.00;;;8.79;59.52
50394;BME280;36308;46.312;25.288;2023-04-27T07:06:30;95979.56;;;8.84;59.08
50394;BME280;36308;46.312;25.288;2023-04-27T07:08:57;95987.94;;;8.87;59.18
50394;BME280;36308;46.312;25.288;2023-04-27T07:11:23;95984.03;;;8.95;59.49
50394;BME280;36308;46.312;25.288;2023-04-27T07:13:48;95985.38;;;8.98;59.05
50394;BME280;36308;46.312;25.288;2023-04-27T07:16:15;95986.50;;;9.02;58.60
50394;BME280;36308;46.312;25.288;2023-04-27T07:18:41;95982.28;;;9.06;58.37
50394;BME280;36308;46.312;25.288;2023-04-27T07:21:06;95982.59;;;9.09;58.50
50394;BME280;36308;46.312;25.288;2023-04-27T07:23:32;95988.28;;;9.13;57.99
50394;BME280;36308;46.312;25.288;2023-04-27T07:25:57;95989.56;;;9.10;57.19
50394;BME280;36308;46.312;25.288;2023-04-27T07:28:23;95989.84;;;9.09;56.74
50394;BME280;36308;46.312;25.288;2023-04-27T07:30:49;95987.16;;;9.09;57.47
50394;BME280;36308;46.312;25.288;2023-04-27T07:33:14;95979.69;;;9.11;57.55
50394;BME280;36308;46.312;25.288;2023-04-27T07:35:40;95988.09;;;9.20;57.96
50394;BME280;36308;46.312;25.288;2023-04-27T07:38:06;95981.53;;;9.33;57.61
50394;BME280;36308;46.312;25.288;2023-04-27T07:40:32;95984.66;;;9.46;57.72
50394;BME280;36308;46.312;25.288;2023-04-27T07:42:59;95985.56;;;9.57;57.60
50394;BME280;36308;46.312;25.288;2023-04-27T07:45:25;95986.22;;;9.69;57.07
50394;BME280;36308;46.312;25.288;2023-04-27T07:47:57;95994.75;;;9.88;56.90
50394;BME280;36308;46.312;25.288;2023-04-27T07:50:27;95981.19;;;10.05;57.22
50394;BME280;36308;46.312;25.288;2023-04-27T07:52:54;95991.56;;;10.24;56.74
50394;BME280;36308;46.312;25.288;2023-04-27T07:55:21;95990.66;;;10.40;56.49
50394;BME280;36308;46.312;25.288;2023-04-27T07:57:51;95983.47;;;10.56;55.66
50394;BME280;36308;46.312;25.288;2023-04-27T08:00:17;95990.34;;;10.74;55.32
50394;BME280;36308;46.312;25.288;2023-04-27T08:02:43;95982.38;;;10.89;54.36
50394;BME280;36308;46.312;25.288;2023-04-27T08:05:09;95981.34;;;11.01;52.83
50394;BME280;36308;46.312;25.288;2023-04-27T08:07:34;95982.75;;;11.13;52.73
50394;BME280;36308;46.312;25.288;2023-04-27T08:10:00;95987.38;;;11.28;52.08
50394;BME280;36308;46.312;25.288;2023-04-27T08:12:25;95980.97;;;11.40;51.84
50394;BME280;36308;46.312;25.288;2023-04-27T08:14:51;95989.09;;;11.55;51.28
50394;BME280;36308;46.312;25.288;2023-04-27T08:17:17;95981.03;;;11.65;50.61
50394;BME280;36308;46.312;25.288;2023-04-27T08:19:43;95995.91;;;11.83;50.32
50394;BME280;36308;46.312;25.288;2023-04-27T08:22:08;95987.59;;;11.95;49.54
50394;BME280;36308;46.312;25.288;2023-04-27T08:24:34;95991.41;;;12.15;48.58
50394;BME280;36308;46.312;25.288;2023-04-27T08:27:00;95987.09;;;12.34;48.58
50394;BME280;36308;46.312;25.288;2023-04-27T08:29:27;95986.03;;;12.56;48.63
50394;BME280;36308;46.312;25.288;2023-04-27T08:31:53;95996.22;;;12.79;48.43
50394;BME280;36308;46.312;25.288;2023-04-27T08:34:19;95988.09;;;12.94;46.81
50394;BME280;36308;46.312;25.288;2023-04-27T08:36:45;95980.50;;;13.07;45.38
50394;BME280;36308;46.312;25.288;2023-04-27T08:39:10;95987.28;;;13.09;44.75
50394;BME280;36308;46.312;25.288;2023-04-27T08:41:41;95982.41;;;13.11;44.06
50394;BME280;36308;46.312;25.288;2023-04-27T08:44:15;95983.97;;;13.18;44.29
50394;BME280;36308;46.312;25.288;2023-04-27T08:46:41;95986.41;;;13.24;42.83
50394;BME280;36308;46.312;25.288;2023-04-27T08:49:06;95983.72;;;13.29;42.26
50394;BME280;36308;46.312;25.288;2023-04-27T08:51:33;95985.28;;;13.41;42.61
50394;BME280;36308;46.312;25.288;2023-04-27T08:53:58;95997.91;;;13.56;42.33
50394;BME280;36308;46.312;25.288;2023-04-27T08:56:26;95994.38;;;13.60;41.34
50394;BME280;36308;46.312;25.288;2023-04-27T08:58:52;95991.09;;;13.68;40.83
50394;BME280;36308;46.312;25.288;2023-04-27T09:01:19;95994.28;;;13.81;39.78
50394;BME280;36308;46.312;25.288;2023-04-27T09:03:45;95993.16;;;13.87;38.64
50394;BME280;36308;46.312;25.288;2023-04-27T09:06:13;95992.09;;;13.83;38.26
50394;BME280;36308;46.312;25.288;2023-04-27T09:08:51;95989.41;;;13.83;39.00
50394;BME280;36308;46.312;25.288;2023-04-27T09:11:43;95990.94;;;13.94;39.96
50394;BME280;36308;46.312;25.288;2023-04-27T09:14:19;96000.63;;;14.00;39.71
50394;BME280;36308;46.312;25.288;2023-04-27T09:16:45;95993.09;;;13.97;39.90
50394;BME280;36308;46.312;25.288;2023-04-27T09:19:10;95997.44;;;13.93;38.91
50394;BME280;36308;46.312;25.288;2023-04-27T09:21:36;95993.94;;;13.92;39.04
50394;BME280;36308;46.312;25.288;2023-04-27T09:24:11;95999.25;;;14.03;39.08
50394;BME280;36308;46.312;25.288;2023-04-27T09:26:38;95995.94;;;14.16;38.29
50394;BME280;36308;46.312;25.288;2023-04-27T09:29:03;95998.25;;;14.33;39.14
50394;BME280;36308;46.312;25.288;2023-04-27T09:31:33;95994.84;;;14.57;38.87
50394;BME280;36308;46.312;25.288;2023-04-27T09:33:59;95984.44;;;14.69;37.84
50394;BME280;36308;46.312;25.288;2023-04-27T09:36:25;95989.56;;;14.75;37.39
50394;BME280;36308;46.312;25.288;2023-04-27T09:38:51;95998.50;;;14.71;37.26
50394;BME280;36308;46.312;25.288;2023-04-27T09:41:17;95986.69;;;14.62;36.73
50394;BME280;36308;46.312;25.288;2023-04-27T09:43:43;95997.28;;;14.53;36.93
50394;BME280;36308;46.312;25.288;2023-04-27T09:46:14;95994.88;;;14.46;37.54
50394;BME280;36308;46.312;25.288;2023-04-27T09:48:40;96001.97;;;14.42;37.75
50394;BME280;36308;46.312;25.288;2023-04-27T09:51:07;95989.59;;;14.36;37.14
50394;BME280;36308;46.312;25.288;2023-04-27T10:04:16;95995.59;;;13.83;36.64
50394;BME280;36308;46.312;25.288;2023-04-27T10:06:58;95988.34;;;13.73;37.55
50394;BME280;36308;46.312;25.288;2023-04-27T10:09:25;95994.88;;;13.67;37.97
50394;BME280;36308;46.312;25.288;2023-04-27T10:11:53;95988.72;;;13.62;37.93
50394;BME280;36308;46.312;25.288;2023-04-27T10:14:20;95988.44;;;13.58;37.37
50394;BME280;36308;46.312;25.288;2023-04-27T10:16:54;95989.28;;;13.53;37.45
50394;BME280;36308;46.312;25.288;2023-04-27T10:19:21;95989.03;;;13.50;37.83
50394;BME280;36308;46.312;25.288;2023-04-27T10:21:57;95998.75;;;13.46;38.02
50394;BME280;36308;46.312;25.288;2023-04-27T10:27:06;95996.63;;;13.38;37.97
50394;BME280;36308;46.312;25.288;2023-04-27T10:29:40;95993.66;;;13.34;38.28
50394;BME280;36308;46.312;25.288;2023-04-27T10:32:11;95995.03;;;13.31;38.18
50394;BME280;36308;46.312;25.288;2023-04-27T10:34:37;95990.75;;;13.30;38.31
50394;BME280;36308;46.312;25.288;2023-04-27T10:37:08;95997.19;;;13.29;38.59
50394;BME280;36308;46.312;25.288;2023-04-27T10:39:44;95993.94;;;13.27;38.51
50394;BME280;36308;46.312;25.288;2023-04-27T10:42:10;95998.28;;;13.28;38.41
50394;BME280;36308;46.312;25.288;2023-04-27T10:44:37;96004.78;;;13.32;38.32
50394;BME280;36308;46.312;25.288;2023-04-27T10:47:16;95994.50;;;13.29;38.00
50394;BME280;36308;46.312;25.288;2023-04-27T10:49:44;96001.25;;;13.27;38.11
50394;BME280;36308;46.312;25.288;2023-04-27T10:52:09;96007.75;;;13.21;37.70
50394;BME280;36308;46.312;25.288;2023-04-27T10:54:35;96001.53;;;13.15;38.12
50394;BME280;36308;46.312;25.288;2023-04-27T10:57:06;95996.16;;;13.10;38.27
50394;BME280;36308;46.312;25.288;2023-04-27T10:59:34;96016.69;;;13.06;38.04
50394;BME280;36308;46.312;25.288;2023-04-27T11:02:00;96012.38;;;13.00;37.91
50394;BME280;36308;46.312;25.288;2023-04-27T11:04:36;96008.88;;;12.94;38.07
50394;BME280;36308;46.312;25.288;2023-04-27T11:07:02;96011.84;;;12.92;38.54
50394;BME280;36308;46.312;25.288;2023-04-27T11:09:29;96011.84;;;12.92;37.06
50394;BME280;36308;46.312;25.288;2023-04-27T11:11:55;96022.09;;;12.90;37.43
50394;BME280;36308;46.312;25.288;2023-04-27T11:14:21;96016.44;;;12.92;37.64
50394;BME280;36308;46.312;25.288;2023-04-27T11:16:47;96014.53;;;12.92;37.66
50394;BME280;36308;46.312;25.288;2023-04-27T11:19:16;96016.72;;;12.96;37.48
50394;BME280;36308;46.312;25.288;2023-04-27T11:21:41;96022.66;;;12.98;37.85
50394;BME280;36308;46.312;25.288;2023-04-27T11:24:07;96025.59;;;13.11;38.12
50394;BME280;36308;46.312;25.288;2023-04-27T11:26:34;96008.53;;;13.31;38.07
50394;BME280;36308;46.312;25.288;2023-04-27T11:29:01;96007.97;;;13.45;37.50
50394;BME280;36308;46.312;25.288;2023-04-27T11:31:45;96015.75;;;13.51;37.11
50394;BME280;36308;46.312;25.288;2023-04-27T11:34:21;96023.06;;;13.51;37.16
50394;BME280;36308;46.312;25.288;2023-04-27T11:37:05;96029.00;;;13.48;36.84
50394;BME280;36308;46.312;25.288;2023-04-27T11:39:34;96019.88;;;13.39;36.67
50394;BME280;36308;46.312;25.288;2023-04-27T11:44:58;96027.47;;;13.16;36.78
50394;BME280;36308;46.312;25.288;2023-04-27T11:47:26;96028.56;;;13.10;36.87
50394;BME280;36308;46.312;25.288;2023-04-27T11:49:54;96024.25;;;13.04;37.18
50394;BME280;36308;46.312;25.288;2023-04-27T11:52:27;96018.59;;;13.00;37.19
50394;BME280;36308;46.312;25.288;2023-04-27T11:54:53;96021.53;;;12.99;36.97
50394;BME280;36308;46.312;25.288;2023-04-27T11:57:28;96019.38;;;13.01;36.95
50394;BME280;36308;46.312;25.288;2023-04-27T11:59:58;96033.41;;;13.03;36.83
50394;BME280;36308;46.312;25.288;2023-04-27T12:02:25;96023.16;;;13.05;36.74
50394;BME280;36308;46.312;25.288;2023-04-27T12:04:51;96031.81;;;13.02;36.39
50394;BME280;36308;46.312;25.288;2023-04-27T12:07:18;96041.53;;;12.98;35.65
50394;BME280;36308;46.312;25.288;2023-04-27T12:09:43;96038.81;;;12.92;35.31
50394;BME280;36308;46.312;25.288;2023-04-27T12:12:10;96042.63;;;12.86;35.83
50394;BME280;36308;46.312;25.288;2023-04-27T12:14:36;96035.59;;;12.80;36.09
50394;BME280;36308;46.312;25.288;2023-04-27T12:17:01;96043.72;;;12.75;35.73
50394;BME280;36308;46.312;25.288;2023-04-27T12:19:27;96035.59;;;12.70;35.95
50394;BME280;36308;46.312;25.288;2023-04-27T12:21:53;96039.94;;;12.71;36.28
50394;BME280;36308;46.312;25.288;2023-04-27T12:24:19;96038.31;;;12.75;36.75
50394;BME280;36308;46.312;25.288;2023-04-27T12:26:46;96039.13;;;12.86;37.22
50394;BME280;36308;46.312;25.288;2023-04-27T12:29:12;96033.41;;;13.03;37.74
50394;BME280;36308;46.312;25.288;2023-04-27T12:31:38;96021.50;;;13.29;37.87
50394;BME280;36308;46.312;25.288;2023-04-27T12:34:03;96025.72;;;13.56;37.43
50394;BME280;36308;46.312;25.288;2023-04-27T12:36:29;96032.66;;;13.78;37.86
50394;BME280;36308;46.312;25.288;2023-04-27T12:39:11;96034.19;;;13.99;37.86
50394;BME280;36308;46.312;25.288;2023-04-27T12:41:37;96027.78;;;14.24;37.69
50394;BME280;36308;46.312;25.288;2023-04-27T12:44:03;96032.53;;;14.43;37.08
50394;BME280;36308;46.312;25.288;2023-04-27T12:46:29;96026.22;;;14.52;36.31
50394;BME280;36308;46.312;25.288;2023-04-27T12:48:55;96020.81;;;14.52;35.83
50394;BME280;36308;46.312;25.288;2023-04-27T12:51:21;96034.38;;;14.47;35.29
50394;BME280;36308;46.312;25.288;2023-04-27T12:53:47;96025.81;;;14.35;35.13
50394;BME280;36308;46.312;25.288;2023-04-27T12:56:12;96034.00;;;14.25;34.78
50394;BME280;36308;46.312;25.288;2023-04-27T12:58:38;96031.38;;;14.14;35.14
50394;BME280;36308;46.312;25.288;2023-04-27T13:01:04;96031.69;;;14.08;35.09
50394;BME280;36308;46.312;25.288;2023-04-27T13:03:36;96032.31;;;13.94;34.51
50394;BME280;36308;46.312;25.288;2023-04-27T13:06:01;96036.41;;;13.82;34.51
50394;BME280;36308;46.312;25.288;2023-04-27T13:08:27;96035.13;;;13.69;34.82